sensor_id;sensor_type;location;lat;lon;timestamp;temperature;humidity
23520;DHT22;11936;50.820;4.336;2023-06-19T00:00:11;21.50;99.90
23520;DHT22;11936;50.820;4.336;2023-06-19T00:02:41;21.50;99.90
23520;DHT22;11936;50.820;4.336;2023-06-19T00:05:07;21.50;99.90
23520;DHT22;11936;50.820;4.336;2023-06-19T00:07:36;21.50;99.90
23520;DHT22;11936;50.820;4.336;2023-06-19T00:10:01;21.40;99.90
23520;DHT22;11936;50.820;4.336;2023-06-19T00:12:27;21.30;99.90
23520;DHT22;11936;50.820;4.336;2023-06-19T00:14:53;21.30;99.90
23520;DHT22;11936;50.820;4.336;2023-06-19T00:17:19;21.20;99.90
23520;DHT22;11936;50.820;4.336;2023-06-19T00:19:44;21.20;99.90
23520;DHT22;11936;50.820;4.336;2023-06-19T00:22:10;21.20;99.90
23520;DHT22;11936;50.820;4.336;2023-06-19T00:24:36;21.10;99.90
23520;DHT22;11936;50.820;4.336;2023-06-19T00:27:01;20.90;99.90
23520;DHT22;11936;50.820;4.336;2023-06-19T00:29:28;21.00;99.90
23520;DHT22;11936;50.820;4.336;2023-06-19T00:31:54;21.00;99.90
23520;DHT22;11936;50.820;4.336;2023-06-19T00:34:20;21.10;99.90
23520;DHT22;11936;50.820;4.336;2023-06-19T00:36:45;21.10;99.90
23520;DHT22;11936;50.820;4.336;2023-06-19T00:39:12;21.00;99.90
23520;DHT22;11936;50.820;4.336;2023-06-19T00:41:38;21.00;99.90
23520;DHT22;11936;50.820;4.336;2023-06-19T00:44:04;21.00;99.90
23520;DHT22;11936;50.820;4.336;2023-06-19T00:46:31;21.00;99.90
23520;DHT22;11936;50.820;4.336;2023-06-19T00:48:57;21.00;99.90
23520;DHT22;11936;50.820;4.336;2023-06-19T00:51:22;21.10;99.90
23520;DHT22;11936;50.820;4.336;2023-06-19T00:53:53;21.00;99.90
23520;DHT22;11936;50.820;4.336;2023-06-19T00:56:19;20.90;99.90
23520;DHT22;11936;50.820;4.336;2023-06-19T00:58:45;21.00;99.90
23520;DHT22;11936;50.820;4.336;2023-06-19T01:01:10;20.80;99.90
23520;DHT22;11936;50.820;4.336;2023-06-19T01:03:36;20.80;99.90
23520;DHT22;11936;50.820;4.336;2023-06-19T01:06:03;20.90;99.90
23520;DHT22;11936;50.820;4.336;2023-06-19T01:08:51;21.10;99.90
23520;DHT22;11936;50.820;4.336;2023-06-19T01:11:21;21.20;99.90
23520;DHT22;11936;50.820;4.336;2023-06-19T01:13:53;21.00;99.90
23520;DHT22;11936;50.820;4.336;2023-06-19T01:16:21;21.10;99.90
23520;DHT22;11936;50.820;4.336;2023-06-19T01:18:48;21.10;99.90
23520;DHT22;11936;50.820;4.336;2023-06-19T01:21:15;21.10;99.90
23520;DHT22;11936;50.820;4.336;2023-06-19T01:23:41;21.10;99.90
23520;DHT22;11936;50.820;4.336;2023-06-19T01:26:08;21.00;99.90
23520;DHT22;11936;50.820;4.336;2023-06-19T01:28:38;21.00;99.90
23520;DHT22;11936;50.820;4.336;2023-06-19T01:31:17;21.10;99.90
23520;DHT22;11936;50.820;4.336;2023-06-19T01:33:45;21.20;99.90
23520;DHT22;11936;50.820;4.336;2023-06-19T01:36:12;21.20;99.90
23520;DHT22;11936;50.820;4.336;2023-06-19T01:38:40;21.20;99.90
23520;DHT22;11936;50.820;4.336;2023-06-19T01:41:08;21.30;99.90
23520;DHT22;11936;50.820;4.336;2023-06-19T01:43:35;21.10;99.90
23520;DHT22;11936;50.820;4.336;2023-06-19T01:46:02;21.10;99.90
23520;DHT22;11936;50.820;4.336;2023-06-19T01:48:28;21.10;99.90
23520;DHT22;11936;50.820;4.336;2023-06-19T01:50:53;21.10;99.90
23520;DHT22;11936;50.820;4.336;2023-06-19T01:53:19;21.10;99.90
23520;DHT22;11936;50.820;4.336;2023-06-19T01:55:45;21.20;99.90
23520;DHT22;11936;50.820;4.336;2023-06-19T01:58:11;21.30;99.90
23520;DHT22;11936;50.820;4.336;2023-06-19T02:00:36;21.10;99.90
23520;DHT22;11936;50.820;4.336;2023-06-19T02:03:03;21.20;99.90
23520;DHT22;11936;50.820;4.336;2023-06-19T02:05:32;21.20;99.90
23520;DHT22;11936;50.820;4.336;2023-06-19T02:07:58;21.20;99.90
23520;DHT22;11936;50.820;4.336;2023-06-19T02:10:23;21.10;99.90
23520;DHT22;11936;50.820;4.336;2023-06-19T02:12:49;21.10;99.90
23520;DHT22;11936;50.820;4.336;2023-06-19T02:15:15;21.10;99.90
23520;DHT22;11936;50.820;4.336;2023-06-19T02:17:40;21.20;99.90
23520;DHT22;11936;50.820;4.336;2023-06-19T02:20:08;21.00;99.90
23520;DHT22;11936;50.820;4.336;2023-06-19T02:22:39;20.90;99.90
23520;DHT22;11936;50.820;4.336;2023-06-19T02:25:05;20.90;99.90
23520;DHT22;11936;50.820;4.336;2023-06-19T02:27:31;20.90;99.90
23520;DHT22;11936;50.820;4.336;2023-06-19T02:29:57;21.00;99.90
23520;DHT22;11936;50.820;4.336;2023-06-19T02:32:23;21.00;99.90
23520;DHT22;11936;50.820;4.336;2023-06-19T02:34:48;21.10;99.90
23520;DHT22;11936;50.820;4.336;2023-06-19T02:37:14;21.00;99.90
23520;DHT22;11936;50.820;4.336;2023-06-19T02:39:40;21.10;99.90
23520;DHT22;11936;50.820;4.336;2023-06-19T02:42:05;21.10;99.90
23520;DHT22;11936;50.820;4.336;2023-06-19T02:44:31;21.00;99.90
23520;DHT22;11936;50.820;4.336;2023-06-19T02:46:57;21.00;99.90
23520;DHT22;11936;50.820;4.336;2023-06-19T02:49:22;21.10;99.90
23520;DHT22;11936;50.820;4.336;2023-06-19T02:51:48;21.10;99.90
23520;DHT22;11936;50.820;4.336;2023-06-19T02:54:14;21.20;99.90
23520;DHT22;11936;50.820;4.336;2023-06-19T02:56:39;21.20;99.90
23520;DHT22;11936;50.820;4.336;2023-06-19T02:59:05;21.30;99.90
23520;DHT22;11936;50.820;4.336;2023-06-19T03:01:30;21.10;99.90
23520;DHT22;11936;50.820;4.336;2023-06-19T03:03:56;21.00;99.90
23520;DHT22;11936;50.820;4.336;2023-06-19T03:06:24;21.00;99.90
23520;DHT22;11936;50.820;4.336;2023-06-19T03:08:51;20.90;99.90
23520;DHT22;11936;50.820;4.336;2023-06-19T03:11:17;21.00;99.90
23520;DHT22;11936;50.820;4.336;2023-06-19T03:13:53;21.00;99.90
23520;DHT22;11936;50.820;4.336;2023-06-19T03:16:20;21.00;99.90
23520;DHT22;11936;50.820;4.336;2023-06-19T03:18:46;21.00;99.90
23520;DHT22;11936;50.820;4.336;2023-06-19T03:21:15;21.00;99.90
23520;DHT22;11936;50.820;4.336;2023-06-19T03:23:41;20.90;99.90
23520;DHT22;11936;50.820;4.336;2023-06-19T03:26:08;20.80;99.90
23520;DHT22;11936;50.820;4.336;2023-06-19T03:28:33;20.80;99.90
23520;DHT22;11936;50.820;4.336;2023-06-19T03:30:59;20.60;99.90
23520;DHT22;11936;50.820;4.336;2023-06-19T03:33:26;20.50;99.90
23520;DHT22;11936;50.820;4.336;2023-06-19T03:35:51;20.30;99.90
23520;DHT22;11936;50.820;4.336;2023-06-19T03:38:17;20.30;99.90
23520;DHT22;11936;50.820;4.336;2023-06-19T03:40:43;20.30;99.90
23520;DHT22;11936;50.820;4.336;2023-06-19T03:43:08;20.30;99.90
23520;DHT22;11936;50.820;4.336;2023-06-19T03:45:34;20.40;99.90
23520;DHT22;11936;50.820;4.336;2023-06-19T03:47:59;20.40;99.90
23520;DHT22;11936;50.820;4.336;2023-06-19T03:50:25;20.30;99.90
23520;DHT22;11936;50.820;4.336;2023-06-19T03:52:51;20.40;99.90
23520;DHT22;11936;50.820;4.336;2023-06-19T03:55:17;20.30;99.90
23520;DHT22;11936;50.820;4.336;2023-06-19T03:57:42;20.30;99.90
23520;DHT22;11936;50.820;4.336;2023-06-19T04:00:08;20.10;99.90
23520;DHT22;11936;50.820;4.336;2023-06-19T04:02:36;20.20;99.90
23520;DHT22;11936;50.820;4.336;2023-06-19T04:05:02;20.30;99.90
23520;DHT22;11936;50.820;4.336;2023-06-19T04:07:28;20.40;99.90
23520;DHT22;11936;50.820;4.336;2023-06-19T04:09:55;20.50;99.90
23520;DHT22;11936;50.820;4.336;2023-06-19T04:12:20;20.50;99.90
23520;DHT22;11936;50.820;4.336;2023-06-19T04:14:46;20.60;99.90
23520;DHT22;11936;50.820;4.336;2023-06-19T04:17:12;20.60;99.90
23520;DHT22;11936;50.820;4.336;2023-06-19T04:19:38;20.50;99.90
23520;DHT22;11936;50.820;4.336;2023-06-19T04:22:03;20.50;99.90
23520;DHT22;11936;50.820;4.336;2023-06-19T04:24:29;20.50;99.90
23520;DHT22;11936;50.820;4.336;2023-06-19T04:26:55;20.60;99.90
23520;DHT22;11936;50.820;4.336;2023-06-19T04:29:20;20.70;99.90
23520;DHT22;11936;50.820;4.336;2023-06-19T04:31:46;20.70;99.90
23520;DHT22;11936;50.820;4.336;2023-06-19T04:34:15;20.60;99.90
23520;DHT22;11936;50.820;4.336;2023-06-19T04:36:41;20.50;99.90
23520;DHT22;11936;50.820;4.336;2023-06-19T04:39:07;20.40;99.90
23520;DHT22;11936;50.820;4.336;2023-06-19T04:41:32;20.50;99.90
23520;DHT22;11936;50.820;4.336;2023-06-19T04:43:58;20.50;99.90
23520;DHT22;11936;50.820;4.336;2023-06-19T04:46:23;20.40;99.90
23520;DHT22;11936;50.820;4.336;2023-06-19T04:48:49;20.40;99.90
23520;DHT22;11936;50.820;4.336;2023-06-19T04:51:18;20.40;99.90
23520;DHT22;11936;50.820;4.336;2023-06-19T04:53:47;20.40;99.90
23520;DHT22;11936;50.820;4.336;2023-06-19T04:56:14;20.40;99.90
23520;DHT22;11936;50.820;4.336;2023-06-19T04:58:40;20.40;99.90
23520;DHT22;11936;50.820;4.336;2023-06-19T05:01:12;20.30;99.90
23520;DHT22;11936;50.820;4.336;2023-06-19T05:03:38;20.20;99.90
23520;DHT22;11936;50.820;4.336;2023-06-19T05:06:03;20.20;99.90
23520;DHT22;11936;50.820;4.336;2023-06-19T05:08:29;20.20;99.90
23520;DHT22;11936;50.820;4.336;2023-06-19T05:10:54;20.10;99.90
23520;DHT22;11936;50.820;4.336;2023-06-19T05:13:20;20.10;99.90
23520;DHT22;11936;50.820;4.336;2023-06-19T05:15:45;20.10;99.90
23520;DHT22;11936;50.820;4.336;2023-06-19T05:18:11;20.10;99.90
23520;DHT22;11936;50.820;4.336;2023-06-19T05:20:37;20.10;99.90
23520;DHT22;11936;50.820;4.336;2023-06-19T05:23:03;20.10;99.90
23520;DHT22;11936;50.820;4.336;2023-06-19T05:25:28;20.20;99.90
23520;DHT22;11936;50.820;4.336;2023-06-19T05:27:54;20.20;99.90
23520;DHT22;11936;50.820;4.336;2023-06-19T05:30:19;20.10;99.90
23520;DHT22;11936;50.820;4.336;2023-06-19T05:32:45;20.10;99.90
23520;DHT22;11936;50.820;4.336;2023-06-19T05:35:10;20.40;99.90
23520;DHT22;11936;50.820;4.336;2023-06-19T05:37:36;20.70;99.90
23520;DHT22;11936;50.820;4.336;2023-06-19T05:40:03;20.80;99.90
23520;DHT22;11936;50.820;4.336;2023-06-19T05:42:29;20.70;99.90
23520;DHT22;11936;50.820;4.336;2023-06-19T05:44:54;20.60;99.90
23520;DHT22;11936;50.820;4.336;2023-06-19T05:47:20;20.70;99.90
23520;DHT22;11936;50.820;4.336;2023-06-19T05:49:47;20.80;99.90
23520;DHT22;11936;50.820;4.336;2023-06-19T05:52:12;20.70;99.90
23520;DHT22;11936;50.820;4.336;2023-06-19T05:54:38;20.60;99.90
23520;DHT22;11936;50.820;4.336;2023-06-19T05:57:04;20.60;99.90
23520;DHT22;11936;50.820;4.336;2023-06-19T05:59:29;20.50;99.90
23520;DHT22;11936;50.820;4.336;2023-06-19T06:01:55;20.60;99.90
23520;DHT22;11936;50.820;4.336;2023-06-19T06:04:21;20.40;99.90
23520;DHT22;11936;50.820;4.336;2023-06-19T06:06:47;20.20;99.90
23520;DHT22;11936;50.820;4.336;2023-06-19T06:09:13;20.10;99.90
23520;DHT22;11936;50.820;4.336;2023-06-19T06:11:40;20.10;99.90
23520;DHT22;11936;50.820;4.336;2023-06-19T06:14:05;20.10;99.90
23520;DHT22;11936;50.820;4.336;2023-06-19T06:16:31;20.00;99.90
23520;DHT22;11936;50.820;4.336;2023-06-19T06:18:56;19.90;99.90
23520;DHT22;11936;50.820;4.336;2023-06-19T06:21:22;19.80;99.90
23520;DHT22;11936;50.820;4.336;2023-06-19T06:23:47;19.80;99.90
23520;DHT22;11936;50.820;4.336;2023-06-19T06:26:13;19.90;99.90
23520;DHT22;11936;50.820;4.336;2023-06-19T06:28:40;20.20;99.90
23520;DHT22;11936;50.820;4.336;2023-06-19T06:31:05;20.20;99.90
23520;DHT22;11936;50.820;4.336;2023-06-19T06:33:31;20.20;99.90
23520;DHT22;11936;50.820;4.336;2023-06-19T06:35:57;20.20;99.90
23520;DHT22;11936;50.820;4.336;2023-06-19T06:38:23;20.10;99.90
23520;DHT22;11936;50.820;4.336;2023-06-19T06:40:49;20.10;99.90
23520;DHT22;11936;50.820;4.336;2023-06-19T06:43:15;20.00;99.90
23520;DHT22;11936;50.820;4.336;2023-06-19T06:45:41;20.10;99.90
23520;DHT22;11936;50.820;4.336;2023-06-19T06:48:07;20.00;99.90
23520;DHT22;11936;50.820;4.336;2023-06-19T06:50:33;20.20;99.90
23520;DHT22;11936;50.820;4.336;2023-06-19T06:53:00;20.20;99.90
23520;DHT22;11936;50.820;4.336;2023-06-19T06:55:26;20.50;99.90
23520;DHT22;11936;50.820;4.336;2023-06-19T06:57:51;20.20;99.90
23520;DHT22;11936;50.820;4.336;2023-06-19T07:00:17;20.40;99.90
23520;DHT22;11936;50.820;4.336;2023-06-19T07:02:43;20.50;99.90
23520;DHT22;11936;50.820;4.336;2023-06-19T07:05:10;20.50;99.90
23520;DHT22;11936;50.820;4.336;2023-06-19T07:07:36;20.60;99.90
23520;DHT22;11936;50.820;4.336;2023-06-19T07:10:02;20.70;99.90
23520;DHT22;11936;50.820;4.336;2023-06-19T07:12:27;20.90;99.90
23520;DHT22;11936;50.820;4.336;2023-06-19T07:14:53;21.00;99.90
23520;DHT22;11936;50.820;4.336;2023-06-19T07:17:20;21.00;99.90
23520;DHT22;11936;50.820;4.336;2023-06-19T07:19:45;20.90;99.90
23520;DHT22;11936;50.820;4.336;2023-06-19T07:22:11;20.90;99.90
23520;DHT22;11936;50.820;4.336;2023-06-19T07:24:36;21.00;99.90
23520;DHT22;11936;50.820;4.336;2023-06-19T07:27:05;21.10;99.90
23520;DHT22;11936;50.820;4.336;2023-06-19T07:29:30;21.00;99.90
23520;DHT22;11936;50.820;4.336;2023-06-19T07:31:56;21.00;99.90
23520;DHT22;11936;50.820;4.336;2023-06-19T07:34:22;21.00;99.90
23520;DHT22;11936;50.820;4.336;2023-06-19T07:36:47;21.00;99.90
23520;DHT22;11936;50.820;4.336;2023-06-19T07:39:13;21.10;99.90
23520;DHT22;11936;50.820;4.336;2023-06-19T07:41:39;21.00;99.90
23520;DHT22;11936;50.820;4.336;2023-06-19T07:44:04;21.10;99.90
23520;DHT22;11936;50.820;4.336;2023-06-19T07:46:30;20.90;99.90
23520;DHT22;11936;50.820;4.336;2023-06-19T07:48:55;20.70;99.90
23520;DHT22;11936;50.820;4.336;2023-06-19T07:51:21;20.80;99.90
23520;DHT22;11936;50.820;4.336;2023-06-19T07:53:46;20.90;99.90
23520;DHT22;11936;50.820;4.336;2023-06-19T07:56:12;20.90;99.90
23520;DHT22;11936;50.820;4.336;2023-06-19T07:58:37;20.90;99.90
23520;DHT22;11936;50.820;4.336;2023-06-19T08:01:03;20.90;99.90
23520;DHT22;11936;50.820;4.336;2023-06-19T08:03:29;21.10;99.90
23520;DHT22;11936;50.820;4.336;2023-06-19T08:05:56;21.30;99.90
23520;DHT22;11936;50.820;4.336;2023-06-19T08:08:21;21.50;99.90
23520;DHT22;11936;50.820;4.336;2023-06-19T08:10:47;21.60;99.90
23520;DHT22;11936;50.820;4.336;2023-06-19T08:13:12;21.60;99.90
23520;DHT22;11936;50.820;4.336;2023-06-19T08:15:38;21.70;99.90
23520;DHT22;11936;50.820;4.336;2023-06-19T08:18:04;21.70;99.90
23520;DHT22;11936;50.820;4.336;2023-06-19T08:20:29;21.60;99.90
23520;DHT22;11936;50.820;4.336;2023-06-19T08:22:55;21.70;99.90
23520;DHT22;11936;50.820;4.336;2023-06-19T08:25:21;21.80;99.90
23520;DHT22;11936;50.820;4.336;2023-06-19T08:27:47;21.80;99.90
23520;DHT22;11936;50.820;4.336;2023-06-19T08:30:13;21.80;99.90
23520;DHT22;11936;50.820;4.336;2023-06-19T08:32:39;21.70;99.90
23520;DHT22;11936;50.820;4.336;2023-06-19T08:35:04;21.70;99.90
23520;DHT22;11936;50.820;4.336;2023-06-19T08:37:30;21.70;99.90
23520;DHT22;11936;50.820;4.336;2023-06-19T08:39:56;21.60;99.90
23520;DHT22;11936;50.820;4.336;2023-06-19T08:42:22;21.80;99.90
23520;DHT22;11936;50.820;4.336;2023-06-19T08:44:49;21.90;99.90
23520;DHT22;11936;50.820;4.336;2023-06-19T08:47:14;21.90;99.90
23520;DHT22;11936;50.820;4.336;2023-06-19T08:49:40;22.00;99.90
23520;DHT22;11936;50.820;4.336;2023-06-19T08:52:06;22.10;99.90
23520;DHT22;11936;50.820;4.336;2023-06-19T08:54:32;22.20;99.90
23520;DHT22;11936;50.820;4.336;2023-06-19T08:57:01;22.40;99.90
23520;DHT22;11936;50.820;4.336;2023-06-19T08:59:27;22.30;99.90
23520;DHT22;11936;50.820;4.336;2023-06-19T09:01:54;22.20;99.90
23520;DHT22;11936;50.820;4.336;2023-06-19T09:04:22;22.20;99.90
23520;DHT22;11936;50.820;4.336;2023-06-19T09:06:48;22.00;99.90
23520;DHT22;11936;50.820;4.336;2023-06-19T09:09:15;22.00;99.90
23520;DHT22;11936;50.820;4.336;2023-06-19T09:11:41;22.00;99.90
23520;DHT22;11936;50.820;4.336;2023-06-19T09:14:10;21.90;99.90
23520;DHT22;11936;50.820;4.336;2023-06-19T09:16:40;21.90;99.90
23520;DHT22;11936;50.820;4.336;2023-06-19T09:19:07;21.90;99.90
23520;DHT22;11936;50.820;4.336;2023-06-19T09:21:36;21.90;99.90
23520;DHT22;11936;50.820;4.336;2023-06-19T09:24:07;21.90;99.90
23520;DHT22;11936;50.820;4.336;2023-06-19T09:26:33;22.00;99.90
23520;DHT22;11936;50.820;4.336;2023-06-19T09:29:10;22.10;99.90
23520;DHT22;11936;50.820;4.336;2023-06-19T09:31:35;22.20;99.90
23520;DHT22;11936;50.820;4.336;2023-06-19T09:34:03;22.10;99.90
23520;DHT22;11936;50.820;4.336;2023-06-19T09:36:29;22.20;99.90
23520;DHT22;11936;50.820;4.336;2023-06-19T09:38:57;22.20;99.90
23520;DHT22;11936;50.820;4.336;2023-06-19T09:41:25;22.40;99.90
23520;DHT22;11936;50.820;4.336;2023-06-19T09:43:55;22.50;99.90
23520;DHT22;11936;50.820;4.336;2023-06-19T09:46:29;22.60;99.90
23520;DHT22;11936;50.820;4.336;2023-06-19T09:48:58;22.80;99.90
23520;DHT22;11936;50.820;4.336;2023-06-19T09:51:36;22.80;99.90
23520;DHT22;11936;50.820;4.336;2023-06-19T09:54:03;22.80;99.90
23520;DHT22;11936;50.820;4.336;2023-06-19T09:56:30;22.80;99.90
23520;DHT22;11936;50.820;4.336;2023-06-19T09:58:57;23.00;99.90
23520;DHT22;11936;50.820;4.336;2023-06-19T10:01:32;23.00;99.90
23520;DHT22;11936;50.820;4.336;2023-06-19T10:04:06;22.80;99.90
23520;DHT22;11936;50.820;4.336;2023-06-19T10:06:32;23.00;99.90
23520;DHT22;11936;50.820;4.336;2023-06-19T10:09:07;23.10;99.90
23520;DHT22;11936;50.820;4.336;2023-06-19T10:11:50;23.20;99.90
23520;DHT22;11936;50.820;4.336;2023-06-19T10:14:20;23.00;99.90
23520;DHT22;11936;50.820;4.336;2023-06-19T10:16:47;23.20;99.90
23520;DHT22;11936;50.820;4.336;2023-06-19T10:19:14;23.20;99.90
23520;DHT22;11936;50.820;4.336;2023-06-19T10:21:58;23.10;99.90
23520;DHT22;11936;50.820;4.336;2023-06-19T10:24:25;23.10;99.90
23520;DHT22;11936;50.820;4.336;2023-06-19T10:27:02;23.00;99.90
23520;DHT22;11936;50.820;4.336;2023-06-19T10:29:40;23.10;99.90
23520;DHT22;11936;50.820;4.336;2023-06-19T10:32:06;23.10;99.90
23520;DHT22;11936;50.820;4.336;2023-06-19T10:34:35;23.10;99.90
23520;DHT22;11936;50.820;4.336;2023-06-19T10:37:02;22.90;99.90
23520;DHT22;11936;50.820;4.336;2023-06-19T10:39:30;23.00;99.90
23520;DHT22;11936;50.820;4.336;2023-06-19T10:41:55;22.90;99.90
23520;DHT22;11936;50.820;4.336;2023-06-19T10:44:23;22.90;99.90
23520;DHT22;11936;50.820;4.336;2023-06-19T10:46:52;23.00;99.90
23520;DHT22;11936;50.820;4.336;2023-06-19T10:49:18;23.00;99.90
23520;DHT22;11936;50.820;4.336;2023-06-19T10:51:43;23.00;99.90
23520;DHT22;11936;50.820;4.336;2023-06-19T10:54:09;23.00;99.90
23520;DHT22;11936;50.820;4.336;2023-06-19T10:56:35;23.10;99.90
23520;DHT22;11936;50.820;4.336;2023-06-19T10:59:03;23.20;99.90
23520;DHT22;11936;50.820;4.336;2023-06-19T11:01:38;23.20;99.90
23520;DHT22;11936;50.820;4.336;2023-06-19T11:04:09;23.20;99.90
23520;DHT22;11936;50.820;4.336;2023-06-19T11:06:36;23.30;99.90
23520;DHT22;11936;50.820;4.336;2023-06-19T11:09:06;23.40;99.90
23520;DHT22;11936;50.820;4.336;2023-06-19T11:11:39;23.30;99.90
23520;DHT22;11936;50.820;4.336;2023-06-19T11:14:06;23.30;99.90
23520;DHT22;11936;50.820;4.336;2023-06-19T11:16:33;23.40;99.90
23520;DHT22;11936;50.820;4.336;2023-06-19T11:18:59;23.40;99.90
23520;DHT22;11936;50.820;4.336;2023-06-19T11:21:36;23.50;99.90
23520;DHT22;11936;50.820;4.336;2023-06-19T11:24:06;23.70;99.90
23520;DHT22;11936;50.820;4.336;2023-06-19T11:26:42;23.70;99.90
23520;DHT22;11936;50.820;4.336;2023-06-19T11:29:25;23.70;99.90
23520;DHT22;11936;50.820;4.336;2023-06-19T11:31:53;23.80;99.90
23520;DHT22;11936;50.820;4.336;2023-06-19T11:34:19;23.90;99.90
23520;DHT22;11936;50.820;4.336;2023-06-19T11:36:45;23.80;99.90
23520;DHT22;11936;50.820;4.336;2023-06-19T11:39:12;23.90;99.90
23520;DHT22;11936;50.820;4.336;2023-06-19T11:41:43;24.00;99.90
23520;DHT22;11936;50.820;4.336;2023-06-19T11:44:09;23.90;99.40
23520;DHT22;11936;50.820;4.336;2023-06-19T11:46:35;23.90;99.60
23520;DHT22;11936;50.820;4.336;2023-06-19T11:49:17;23.90;99.50
23520;DHT22;11936;50.820;4.336;2023-06-19T11:51:44;24.10;99.30
23520;DHT22;11936;50.820;4.336;2023-06-19T11:54:11;24.20;98.40
23520;DHT22;11936;50.820;4.336;2023-06-19T11:56:38;24.20;98.20
23520;DHT22;11936;50.820;4.336;2023-06-19T11:59:04;24.10;98.10
23520;DHT22;11936;50.820;4.336;2023-06-19T12:01:34;24.10;98.00
23520;DHT22;11936;50.820;4.336;2023-06-19T12:04:01;24.10;98.30
23520;DHT22;11936;50.820;4.336;2023-06-19T12:06:27;24.20;97.40
23520;DHT22;11936;50.820;4.336;2023-06-19T12:08:53;24.20;97.20
23520;DHT22;11936;50.820;4.336;2023-06-19T12:11:18;24.20;97.20
23520;DHT22;11936;50.820;4.336;2023-06-19T12:13:44;24.20;96.90
23520;DHT22;11936;50.820;4.336;2023-06-19T12:16:10;24.20;95.80
23520;DHT22;11936;50.820;4.336;2023-06-19T12:18:36;24.20;95.90
23520;DHT22;11936;50.820;4.336;2023-06-19T12:21:02;24.40;96.10
23520;DHT22;11936;50.820;4.336;2023-06-19T12:23:27;24.40;94.80
23520;DHT22;11936;50.820;4.336;2023-06-19T12:25:53;24.50;95.30
23520;DHT22;11936;50.820;4.336;2023-06-19T12:28:19;24.60;94.50
23520;DHT22;11936;50.820;4.336;2023-06-19T12:30:45;24.60;95.00
23520;DHT22;11936;50.820;4.336;2023-06-19T12:33:11;24.60;95.20
23520;DHT22;11936;50.820;4.336;2023-06-19T12:35:39;24.60;94.70
23520;DHT22;11936;50.820;4.336;2023-06-19T12:38:06;24.70;94.70
23520;DHT22;11936;50.820;4.336;2023-06-19T12:40:32;24.80;94.40
23520;DHT22;11936;50.820;4.336;2023-06-19T12:43:00;24.90;94.70
23520;DHT22;11936;50.820;4.336;2023-06-19T12:45:26;24.90;94.40
23520;DHT22;11936;50.820;4.336;2023-06-19T12:47:51;25.00;93.60
23520;DHT22;11936;50.820;4.336;2023-06-19T12:50:17;25.00;93.70
23520;DHT22;11936;50.820;4.336;2023-06-19T12:52:42;25.00;93.00
23520;DHT22;11936;50.820;4.336;2023-06-19T12:55:08;25.00;92.70
23520;DHT22;11936;50.820;4.336;2023-06-19T12:57:34;25.10;92.20
23520;DHT22;11936;50.820;4.336;2023-06-19T12:59:59;25.10;92.50
23520;DHT22;11936;50.820;4.336;2023-06-19T13:02:25;25.10;92.50
23520;DHT22;11936;50.820;4.336;2023-06-19T13:04:52;25.00;92.40
23520;DHT22;11936;50.820;4.336;2023-06-19T13:07:17;25.10;92.80
23520;DHT22;11936;50.820;4.336;2023-06-19T13:09:43;25.20;92.70
23520;DHT22;11936;50.820;4.336;2023-06-19T13:12:09;25.10;92.80
23520;DHT22;11936;50.820;4.336;2023-06-19T13:14:34;25.20;92.40
23520;DHT22;11936;50.820;4.336;2023-06-19T13:17:00;25.30;92.20
23520;DHT22;11936;50.820;4.336;2023-06-19T13:19:26;25.20;92.50
23520;DHT22;11936;50.820;4.336;2023-06-19T13:21:52;25.20;92.40
23520;DHT22;11936;50.820;4.336;2023-06-19T13:24:17;25.20;92.60
23520;DHT22;11936;50.820;4.336;2023-06-19T13:26:44;25.20;92.30
23520;DHT22;11936;50.820;4.336;2023-06-19T13:29:11;25.30;92.20
23520;DHT22;11936;50.820;4.336;2023-06-19T13:31:37;25.40;92.90
23520;DHT22;11936;50.820;4.336;2023-06-19T13:34:03;25.50;93.20
23520;DHT22;11936;50.820;4.336;2023-06-19T13:36:28;25.50;93.60
23520;DHT22;11936;50.820;4.336;2023-06-19T13:38:54;25.60;93.20
23520;DHT22;11936;50.820;4.336;2023-06-19T13:41:20;25.70;92.70
23520;DHT22;11936;50.820;4.336;2023-06-19T13:43:49;25.80;92.50
23520;DHT22;11936;50.820;4.336;2023-06-19T13:46:15;25.80;92.00
23520;DHT22;11936;50.820;4.336;2023-06-19T13:48:40;25.70;92.30
23520;DHT22;11936;50.820;4.336;2023-06-19T13:51:06;25.70;92.00
23520;DHT22;11936;50.820;4.336;2023-06-19T13:53:31;25.70;92.70
23520;DHT22;11936;50.820;4.336;2023-06-19T13:55:57;25.90;92.30
23520;DHT22;11936;50.820;4.336;2023-06-19T13:58:23;25.90;92.80
23520;DHT22;11936;50.820;4.336;2023-06-19T14:00:48;25.90;92.60
23520;DHT22;11936;50.820;4.336;2023-06-19T14:03:14;26.10;92.20
23520;DHT22;11936;50.820;4.336;2023-06-19T14:05:40;26.10;92.60
23520;DHT22;11936;50.820;4.336;2023-06-19T14:08:05;26.30;92.70
23520;DHT22;11936;50.820;4.336;2023-06-19T14:10:31;26.30;92.30
23520;DHT22;11936;50.820;4.336;2023-06-19T14:12:56;26.30;92.20
23520;DHT22;11936;50.820;4.336;2023-06-19T14:15:22;26.30;92.20
23520;DHT22;11936;50.820;4.336;2023-06-19T14:17:48;26.20;92.40
23520;DHT22;11936;50.820;4.336;2023-06-19T14:20:14;26.30;92.20
23520;DHT22;11936;50.820;4.336;2023-06-19T14:22:39;26.40;92.00
23520;DHT22;11936;50.820;4.336;2023-06-19T14:25:05;26.50;92.00
23520;DHT22;11936;50.820;4.336;2023-06-19T14:27:31;26.60;91.80
23520;DHT22;11936;50.820;4.336;2023-06-19T14:29:56;26.50;91.90
23520;DHT22;11936;50.820;4.336;2023-06-19T14:32:22;26.40;91.20
23520;DHT22;11936;50.820;4.336;2023-06-19T14:34:51;26.30;91.60
23520;DHT22;11936;50.820;4.336;2023-06-19T14:37:16;26.30;91.50
23520;DHT22;11936;50.820;4.336;2023-06-19T14:39:42;26.40;92.00
23520;DHT22;11936;50.820;4.336;2023-06-19T14:42:08;26.50;92.10
23520;DHT22;11936;50.820;4.336;2023-06-19T14:44:35;26.60;91.70
23520;DHT22;11936;50.820;4.336;2023-06-19T14:47:01;26.60;90.90
23520;DHT22;11936;50.820;4.336;2023-06-19T14:49:27;26.90;90.80
23520;DHT22;11936;50.820;4.336;2023-06-19T14:51:53;27.00;90.40
23520;DHT22;11936;50.820;4.336;2023-06-19T14:54:19;27.20;90.20
23520;DHT22;11936;50.820;4.336;2023-06-19T14:56:45;27.20;90.10
23520;DHT22;11936;50.820;4.336;2023-06-19T14:59:13;27.30;88.80
23520;DHT22;11936;50.820;4.336;2023-06-19T15:01:39;27.30;89.40
23520;DHT22;11936;50.820;4.336;2023-06-19T15:04:05;27.00;88.60
23520;DHT22;11936;50.820;4.336;2023-06-19T15:06:31;26.90;89.70
23520;DHT22;11936;50.820;4.336;2023-06-19T15:08:57;26.80;89.20
23520;DHT22;11936;50.820;4.336;2023-06-19T15:11:22;26.70;89.60
23520;DHT22;11936;50.820;4.336;2023-06-19T15:13:48;26.70;90.30
23520;DHT22;11936;50.820;4.336;2023-06-19T15:16:14;26.90;89.50
23520;DHT22;11936;50.820;4.336;2023-06-19T15:18:43;27.00;89.60
23520;DHT22;11936;50.820;4.336;2023-06-19T15:21:08;27.10;90.40
23520;DHT22;11936;50.820;4.336;2023-06-19T15:23:34;27.20;89.30
23520;DHT22;11936;50.820;4.336;2023-06-19T15:26:00;27.30;90.00